Time;durP1;ratioP1;P1;durP2;ratioP2;P2;SDS_P1;SDS_P2;PMS_P1;PMS_P2;Temp;Humidity;BMP_temperature;BMP_pressure;BME280_temperature;BME280_humidity;BME280_pressure;Samples;Min_cycle;Max_cycle;Signal;HPM_P1;HPM_P2
2021/04/01 00:00:44;;;;;;;;;;;;;;;13.09;68.76;100655.50;5087408;28;19920;-77
2021/04/01 00:03:10;;;;;;;;;;;;;;;13.08;68.78;100648.25;5093521;28;19924;-76
2021/04/01 00:05:35;;;;;;;;;;;;;;;13.07;69.03;100651.38;5076379;28;19924;-77
2021/04/01 00:08:00;;;;;;;;;;;;;;;13.04;68.73;100652.81;5066485;28;19916;-76
2021/04/01 00:10:35;;;;;;;;;;;;;;;13.01;68.67;100658.16;5078281;28;20272;-77
2021/04/01 00:13:00;;;;;;;;;;;;;;;12.99;68.91;100655.69;5057685;28;19920;-76
2021/04/01 00:15:26;;;;;;;;;;;;;;;12.95;68.75;100658.25;5079408;28;19931;-77
2021/04/01 00:17:51;;;;;;;;;;;;;;;12.95;68.72;100660.19;5076639;28;20390;-77
2021/04/01 00:20:17;;;;;;;;;;;;;;;12.92;68.86;100649.66;5072730;28;19916;-77
2021/04/01 00:22:42;;;;;;;;;;;;;;;12.90;69.06;100646.38;5076445;28;19927;-77
2021/04/01 00:25:08;;;;;;;;;;;;;;;12.87;68.92;100644.19;5095052;28;20387;-76
2021/04/01 00:27:33;;;;;;;;;;;;;;;12.84;68.86;100653.16;5093983;28;20411;-77
2021/04/01 00:29:59;;;;;;;;;;;;;;;12.78;68.74;100649.63;5095775;28;19920;-77
2021/04/01 00:32:24;;;;;;;;;;;;;;;12.79;68.89;100644.88;5077979;28;19912;-76
2021/04/01 00:34:49;;;;;;;;;;;;;;;12.75;69.00;100639.91;5099437;28;19920;-77
2021/04/01 00:37:15;;;;;;;;;;;;;;;12.76;68.91;100640.78;5081646;28;19916;-76
2021/04/01 00:39:40;;;;;;;;;;;;;;;12.71;68.75;100633.31;5081998;28;19983;-77
2021/04/01 00:42:05;;;;;;;;;;;;;;;12.70;69.10;100623.31;5096105;28;20013;-77
2021/04/01 00:44:31;;;;;;;;;;;;;;;12.69;68.98;100634.75;5081197;28;19920;-76
2021/04/01 00:46:56;;;;;;;;;;;;;;;12.68;68.92;100631.16;5098693;28;19923;-77
2021/04/01 00:49:22;;;;;;;;;;;;;;;12.65;69.15;100631.75;5077296;28;19922;-76
2021/04/01 00:51:47;;;;;;;;;;;;;;;12.66;69.29;100630.63;5098117;28;19916;-77
2021/04/01 00:54:12;;;;;;;;;;;;;;;12.65;69.05;100622.56;5100015;28;19959;-77
2021/04/01 00:56:38;;;;;;;;;;;;;;;12.67;68.74;100625.88;5098656;28;20004;-76
2021/04/01 00:59:03;;;;;;;;;;;;;;;12.63;68.72;100630.41;5080323;28;20439;-77
2021/04/01 01:01:51;;;;;;;;;;;;;;;12.64;69.05;100624.50;5081546;28;19920;-76
2021/04/01 01:04:17;;;;;;;;;;;;;;;12.65;68.88;100623.41;5079590;28;19923;-77
2021/04/01 01:06:42;;;;;;;;;;;;;;;12.64;68.68;100626.47;5073579;28;19916;-76
2021/04/01 01:09:08;;;;;;;;;;;;;;;12.62;68.73;100634.31;5080705;28;19938;-77
2021/04/01 01:11:33;;;;;;;;;;;;;;;12.59;68.73;100638.56;5090860;28;19921;-77
2021/04/01 01:14:00;;;;;;;;;;;;;;;12.59;69.29;100634.91;5078827;28;19923;-76
2021/04/01 01:16:25;;;;;;;;;;;;;;;12.55;69.15;100631.91;5099864;28;20008;-76
2021/04/01 01:18:50;;;;;;;;;;;;;;;12.55;69.03;100645.84;5096140;28;19955;-76
2021/04/01 01:21:16;;;;;;;;;;;;;;;12.52;69.24;100647.28;5098165;28;19971;-76
2021/04/01 01:23:41;;;;;;;;;;;;;;;12.51;69.10;100636.47;5077193;28;19916;-77
2021/04/01 01:26:06;;;;;;;;;;;;;;;12.48;69.19;100637.03;5080341;28;19920;-76
2021/04/01 01:28:32;;;;;;;;;;;;;;;12.45;69.07;100638.50;5096483;28;19916;-77
2021/04/01 01:30:57;;;;;;;;;;;;;;;12.44;69.22;100639.63;5080427;28;19979;-77
2021/04/01 01:33:23;;;;;;;;;;;;;;;12.42;69.26;100641.03;5097625;28;19923;-77
2021/04/01 01:35:49;;;;;;;;;;;;;;;12.38;69.09;100640.00;5095313;28;19916;-77
2021/04/01 01:38:15;;;;;;;;;;;;;;;12.37;69.23;100643.91;5080876;28;19939;-77
2021/04/01 01:40:40;;;;;;;;;;;;;;;12.32;69.61;100642.06;5078061;28;19961;-77
2021/04/01 01:43:12;;;;;;;;;;;;;;;12.30;69.38;100642.34;5096079;28;19928;-76
2021/04/01 01:45:38;;;;;;;;;;;;;;;12.24;69.62;100646.34;5080110;28;19920;-76
2021/04/01 01:48:03;;;;;;;;;;;;;;;12.23;69.97;100638.28;5094020;28;19950;-76
2021/04/01 01:50:30;;;;;;;;;;;;;;;12.21;69.40;100637.78;5079308;28;19970;-76
2021/04/01 01:52:55;;;;;;;;;;;;;;;12.17;69.72;100634.75;5098841;28;19939;-77
2021/04/01 01:55:20;;;;;;;;;;;;;;;12.15;69.65;100628.66;5099014;28;20375;-76
2021/04/01 01:57:46;;;;;;;;;;;;;;;12.11;69.63;100638.75;5096599;28;19959;-76
2021/04/01 02:00:23;;;;;;;;;;;;;;;12.08;69.57;100634.59;5092966;28;20003;-76
2021/04/01 02:02:51;;;;;;;;;;;;;;;12.06;69.69;100639.66;5092907;28;19927;-77
2021/04/01 02:05:17;;;;;;;;;;;;;;;12.03;69.64;100642.19;5096675;28;19939;-76
2021/04/01 02:07:42;;;;;;;;;;;;;;;12.00;69.79;100649.19;5080490;28;20386;-76
2021/04/01 02:10:08;;;;;;;;;;;;;;;11.98;69.81;100647.84;5095201;28;19912;-76
2021/04/01 02:12:33;;;;;;;;;;;;;;;11.95;69.63;100654.84;5096292;28;19921;-76
2021/04/01 02:14:58;;;;;;;;;;;;;;;11.94;69.59;100655.13;5091343;28;20292;-76
2021/04/01 02:17:25;;;;;;;;;;;;;;;11.91;69.74;100650.19;5097754;28;19923;-76
2021/04/01 02:19:57;;;;;;;;;;;;;;;11.87;69.63;100651.88;5095837;28;20380;-76
2021/04/01 02:22:22;;;;;;;;;;;;;;;11.85;69.66;100649.38;5096048;28;19977;-76
2021/04/01 02:24:48;;;;;;;;;;;;;;;11.82;69.72;100650.81;5096985;28;19916;-77
2021/04/01 02:27:13;;;;;;;;;;;;;;;11.79;69.71;100654.19;5095136;28;19934;-76
2021/04/01 02:29:38;;;;;;;;;;;;;;;11.78;69.64;100644.19;5094713;28;19916;-76
2021/04/01 02:32:04;;;;;;;;;;;;;;;11.73;69.80;100646.19;5097731;28;19916;-76
2021/04/01 02:34:29;;;;;;;;;;;;;;;11.69;69.90;100639.59;5094840;28;19923;-76
2021/04/01 02:36:54;;;;;;;;;;;;;;;11.67;69.92;100639.88;5097903;28;19924;-76
2021/04/01 02:39:20;;;;;;;;;;;;;;;11.64;69.79;100634.91;5077542;28;20336;-76
2021/04/01 02:41:45;;;;;;;;;;;;;;;11.63;70.13;100634.09;5093842;28;19920;-76
2021/04/01 02:44:10;;;;;;;;;;;;;;;11.63;70.18;100633.25;5096234;28;19999;-77
2021/04/01 02:46:36;;;;;;;;;;;;;;;11.60;70.15;100633.88;5073850;28;19938;-76
2021/04/01 02:49:01;;;;;;;;;;;;;;;11.60;70.09;100631.91;5095507;28;20348;-76
2021/04/01 02:51:26;;;;;;;;;;;;;;;11.58;70.37;100631.38;5076614;28;19947;-76
2021/04/01 02:53:51;;;;;;;;;;;;;;;11.58;70.51;100638.88;5079370;28;20375;-76
2021/04/01 02:56:17;;;;;;;;;;;;;;;11.58;70.31;100639.72;5092920;28;19916;-76
2021/04/01 02:58:42;;;;;;;;;;;;;;;11.56;70.54;100635.56;5097498;28;19916;-77
2021/04/01 03:01:08;;;;;;;;;;;;;;;11.55;70.57;100628.34;5075151;28;20004;-76
2021/04/01 03:03:38;;;;;;;;;;;;;;;11.55;70.34;100623.63;5072014;28;20315;-76
2021/04/01 03:06:03;;;;;;;;;;;;;;;11.54;70.35;100635.88;5091577;28;19915;-76
2021/04/01 03:08:28;;;;;;;;;;;;;;;11.51;70.04;100627.31;5096115;28;20564;-76
2021/04/01 03:10:54;;;;;;;;;;;;;;;11.50;70.13;100628.41;5076645;28;19928;-76
2021/04/01 03:13:19;;;;;;;;;;;;;;;11.50;69.92;100631.19;5078719;28;19920;-76
2021/04/01 03:15:45;;;;;;;;;;;;;;;11.46;69.98;100619.03;5087802;28;20291;-76
2021/04/01 03:18:10;;;;;;;;;;;;;;;11.45;70.10;100626.56;5073322;28;19923;-76
2021/04/01 03:20:35;;;;;;;;;;;;;;;11.40;70.06;100621.88;5076692;28;19916;-76
2021/04/01 03:23:01;;;;;;;;;;;;;;;11.40;69.85;100627.44;5076806;28;19976;-76
2021/04/01 03:25:26;;;;;;;;;;;;;;;11.36;69.95;100612.44;5096144;28;19928;-76
2021/04/01 03:27:51;;;;;;;;;;;;;;;11.38;70.02;100618.53;5096848;28;20268;-76
2021/04/01 03:30:17;;;;;;;;;;;;;;;11.36;69.88;100615.22;5095212;28;19916;-76
2021/04/01 03:32:43;;;;;;;;;;;;;;;11.35;70.11;100608.03;5094589;28;19970;-76
2021/04/01 03:35:09;;;;;;;;;;;;;;;11.30;69.94;100605.31;5094162;28;19974;-76
2021/04/01 03:37:35;;;;;;;;;;;;;;;11.28;69.97;100606.72;5094141;28;20007;-76
2021/04/01 03:40:00;;;;;;;;;;;;;;;11.28;70.02;100606.72;5090140;28;19970;-76
2021/04/01 03:42:26;;;;;;;;;;;;;;;11.23;70.09;100607.63;5092744;28;19920;-76
2021/04/01 03:44:53;;;;;;;;;;;;;;;11.19;70.63;100603.75;5095950;28;20406;-77
2021/04/01 03:47:18;;;;;;;;;;;;;;;11.18;70.30;100613.25;5095215;28;19938;-76
2021/04/01 03:49:44;;;;;;;;;;;;;;;11.16;70.44;100609.91;5077611;28;20423;-76
2021/04/01 03:52:09;;;;;;;;;;;;;;;11.13;70.59;100616.06;5093826;28;20401;-76
2021/04/01 03:54:34;;;;;;;;;;;;;;;11.11;70.46;100609.97;5090845;28;19915;-76
2021/04/01 03:57:00;;;;;;;;;;;;;;;11.07;70.76;100608.91;5094759;28;19971;-76
2021/04/01 03:59:30;;;;;;;;;;;;;;;11.04;70.76;100604.78;5094524;28;19912;-76
2021/04/01 04:05:17;;;;;;;;;;;;;;;11.00;70.83;100611.22;5059822;28;19924;-76
2021/04/01 04:11:12;;;;;;;;;;;;;;;10.94;70.68;100605.69;5078332;28;19916;-76
2021/04/01 04:16:10;;;;;;;;;;;;;;;10.88;70.74;100604.09;5020752;28;19924;-76
2021/04/01 04:18:35;;;;;;;;;;;;;;;10.82;70.79;100610.84;5093707;28;19923;-76
2021/04/01 04:21:00;;;;;;;;;;;;;;;10.80;70.97;100612.25;5069900;28;19923;-76
2021/04/01 04:23:26;;;;;;;;;;;;;;;10.77;71.17;100613.66;5069458;28;19920;-76
2021/04/01 04:25:54;;;;;;;;;;;;;;;10.75;71.17;100613.13;5078207;28;19924;-76
2021/04/01 04:28:32;;;;;;;;;;;;;;;10.74;71.20;100615.06;5077462;28;19916;-76
2021/04/01 04:30:57;;;;;;;;;;;;;;;10.72;71.11;100616.50;5072285;28;19934;-78
2021/04/01 04:33:22;;;;;;;;;;;;;;;10.70;71.06;100616.78;5093587;28;20384;-76
2021/04/01 04:35:48;;;;;;;;;;;;;;;10.70;71.03;100618.75;5091395;28;19924;-76
2021/04/01 04:38:13;;;;;;;;;;;;;;;10.66;70.91;100610.16;5089908;28;19916;-76
2021/04/01 04:40:39;;;;;;;;;;;;;;;10.64;70.94;100609.63;5094435;28;19981;-76
2021/04/01 04:43:04;;;;;;;;;;;;;;;10.65;71.01;100618.78;5093668;28;19980;-76
2021/04/01 04:45:29;;;;;;;;;;;;;;;10.63;70.90;100618.25;5092257;28;19928;-76
2021/04/01 04:47:55;;;;;;;;;;;;;;;10.60;70.91;100619.66;5059854;28;19916;-76
2021/04/01 04:50:20;;;;;;;;;;;;;;;10.58;70.90;100621.06;5095887;28;19920;-76
2021/04/01 04:52:45;;;;;;;;;;;;;;;10.57;70.87;100625.81;5094040;28;19965;-76
2021/04/01 04:55:12;;;;;;;;;;;;;;;10.55;71.08;100621.66;5095326;28;19923;-76
2021/04/01 05:05:33;;;;;;;;;;;;;;;10.44;70.87;100629.25;5095970;28;19999;-77
2021/04/01 05:07:58;;;;;;;;;;;;;;;10.42;70.76;100626.78;5094169;28;19916;-76
2021/04/01 05:10:24;;;;;;;;;;;;;;;10.40;70.88;100630.94;5075124;28;19966;-75
2021/04/01 05:13:01;;;;;;;;;;;;;;;10.39;70.73;100627.34;5085938;28;20378;-76
2021/04/01 05:15:26;;;;;;;;;;;;;;;10.37;70.72;100629.59;5092237;28;19916;-76
2021/04/01 05:17:53;;;;;;;;;;;;;;;10.35;70.79;100633.75;5075194;28;19916;-76
2021/04/01 05:20:19;;;;;;;;;;;;;;;10.35;70.70;100634.59;5097510;28;19976;-76
2021/04/01 05:22:52;;;;;;;;;;;;;;;10.31;70.79;100639.06;5099253;28;20554;-76
2021/04/01 05:25:17;;;;;;;;;;;;;;;10.28;70.97;100640.47;5097473;28;19916;-69
2021/04/01 05:30:08;;;;;;;;;;;;;;;10.27;70.60;100643.53;5098087;28;19918;-69
2021/04/01 05:32:38;;;;;;;;;;;;;;;10.24;70.73;100644.06;5097720;28;20322;-69
2021/04/01 05:35:08;;;;;;;;;;;;;;;10.19;70.71;100653.25;5048098;28;19916;-69
2021/04/01 05:37:33;;;;;;;;;;;;;;;10.18;70.70;100651.63;5098336;28;20292;-69
2021/04/01 05:39:59;;;;;;;;;;;;;;;10.16;70.72;100648.28;5094889;28;19916;-69
2021/04/01 05:42:27;;;;;;;;;;;;;;;10.17;70.75;100651.88;5096195;28;20451;-69
2021/04/01 05:45:03;;;;;;;;;;;;;;;10.17;70.74;100654.66;5098980;28;19972;-69
2021/04/01 05:47:37;;;;;;;;;;;;;;;10.16;70.54;100647.47;5096230;28;19966;-69
2021/04/01 05:50:23;;;;;;;;;;;;;;;10.13;70.83;100653.59;5081008;28;19916;-70
2021/04/01 06:01:23;;;;;;;;;;;;;;;10.04;71.05;100651.44;5096799;28;19916;-70
2021/04/01 06:03:58;;;;;;;;;;;;;;;10.07;71.04;100658.34;5097309;28;19920;-70
2021/04/01 06:06:39;;;;;;;;;;;;;;;10.05;71.12;100664.16;5083993;28;20327;-70
2021/04/01 06:09:05;;;;;;;;;;;;;;;10.06;71.18;100654.75;5093816;28;20415;-70
2021/04/01 06:11:30;;;;;;;;;;;;;;;10.07;71.32;100656.41;5097904;28;19952;-71
2021/04/01 06:14:11;;;;;;;;;;;;;;;10.07;71.19;100656.41;5096501;28;20522;-78
2021/04/01 06:16:37;;;;;;;;;;;;;;;10.06;71.41;100653.94;5096598;28;20295;-77
2021/04/01 06:19:04;;;;;;;;;;;;;;;10.11;71.16;100653.03;5079331;28;20426;-77
2021/04/01 06:21:29;;;;;;;;;;;;;;;10.12;71.04;100658.31;5080594;28;19938;-77
2021/04/01 06:24:00;;;;;;;;;;;;;;;10.11;71.13;100659.41;5061601;28;20377;-70
2021/04/01 06:26:26;;;;;;;;;;;;;;;10.16;71.07;100672.44;5097903;28;19923;-76
2021/04/01 06:28:57;;;;;;;;;;;;;;;10.15;71.25;100660.53;5063625;28;19912;-77
2021/04/01 06:31:25;;;;;;;;;;;;;;;10.18;71.25;100667.44;5076986;28;20422;-76
2021/04/01 06:33:51;;;;;;;;;;;;;;;10.22;71.23;100674.06;5097246;28;20011;-76
2021/04/01 06:36:17;;;;;;;;;;;;;;;10.26;71.38;100672.38;5080182;28;19912;-77
2021/04/01 06:38:43;;;;;;;;;;;;;;;10.30;71.25;100676.25;5096494;28;20375;-76
2021/04/01 06:41:15;;;;;;;;;;;;;;;10.34;71.56;100671.81;5060106;28;20122;-78
2021/04/01 06:43:51;;;;;;;;;;;;;;;10.41;71.36;100677.03;5057170;28;19917;-77
2021/04/01 06:46:17;;;;;;;;;;;;;;;10.46;71.25;100672.25;5094945;28;20014;-78
2021/04/01 06:51:28;;;;;;;;;;;;;;;10.61;71.16;100684.38;5065752;28;19965;-78
2021/04/01 06:54:05;;;;;;;;;;;;;;;10.67;71.62;100686.81;5095948;28;19916;-77
2021/04/01 06:56:58;;;;;;;;;;;;;;;10.77;71.63;100688.66;5076603;28;19920;-78
2021/04/01 06:59:45;;;;;;;;;;;;;;;10.87;71.98;100690.56;5095776;28;19916;-77
2021/04/01 07:04:43;;;;;;;;;;;;;;;11.06;72.07;100687.84;5062511;28;19916;-78
2021/04/01 07:07:14;;;;;;;;;;;;;;;11.17;72.08;100683.84;5059902;28;19939;-78
2021/04/01 07:12:16;;;;;;;;;;;;;;;11.41;71.21;100695.00;5078712;28;19961;-78
2021/04/01 07:14:43;;;;;;;;;;;;;;;11.53;71.22;100692.66;5076707;28;19916;-78
2021/04/01 07:17:10;;;;;;;;;;;;;;;11.66;71.41;100696.66;5061955;28;19923;-78
2021/04/01 07:35:56;;;;;;;;;;;;;;;12.87;69.56;100691.56;5081248;28;19942;-79
2021/04/01 07:46:39;;;;;;;;;;;;;;;13.62;68.94;100693.25;5079499;28;20045;-78
2021/04/01 07:49:11;;;;;;;;;;;;;;;13.75;68.63;100695.22;5074967;28;19946;-79
2021/04/01 07:54:23;;;;;;;;;;;;;;;14.12;68.50;100692.50;5076774;28;19916;-78
2021/04/01 07:56:53;;;;;;;;;;;;;;;14.29;68.11;100689.84;5074321;28;19971;-78
2021/04/01 08:02:07;;;;;;;;;;;;;;;14.58;68.24;100678.31;5076190;28;19920;-79
2021/04/01 08:04:32;;;;;;;;;;;;;;;14.77;68.09;100692.09;5077241;28;19924;-79
2021/04/01 08:07:11;;;;;;;;;;;;;;;14.92;67.63;100688.09;5078152;28;19995;-78
2021/04/01 08:09:42;;;;;;;;;;;;;;;15.06;67.23;100688.00;5092221;28;19922;-79
2021/04/01 08:12:15;;;;;;;;;;;;;;;15.20;66.64;100683.16;5093619;28;20387;-79
2021/04/01 08:14:42;;;;;;;;;;;;;;;15.34;66.62;100681.09;5074911;28;19924;-79
2021/04/01 08:17:15;;;;;;;;;;;;;;;15.49;66.75;100690.19;5074795;28;20018;-79
2021/04/01 08:19:41;;;;;;;;;;;;;;;15.64;66.04;100692.56;5058007;28;19962;-79
2021/04/01 08:22:12;;;;;;;;;;;;;;;15.78;65.95;100693.31;5078332;28;20544;-79
2021/04/01 08:24:43;;;;;;;;;;;;;;;15.95;65.09;100698.13;5071702;28;19970;-79
2021/04/01 08:35:01;;;;;;;;;;;;;;;16.59;65.20;100705.97;5093944;28;20300;-79
2021/04/01 08:37:30;;;;;;;;;;;;;;;16.77;64.23;100705.97;5095319;28;19912;-79
2021/04/01 08:39:55;;;;;;;;;;;;;;;16.93;64.46;100698.69;5076697;28;20557;-79
2021/04/01 08:42:23;;;;;;;;;;;;;;;17.08;63.52;100705.78;5077287;28;19955;-79
2021/04/01 08:45:41;;;;;;;;;;;;;;;17.23;64.21;100701.63;5094719;28;19927;-79
2021/04/01 08:48:18;;;;;;;;;;;;;;;17.46;63.70;100705.00;5089963;28;20368;-79
2021/04/01 08:51:02;;;;;;;;;;;;;;;17.63;64.60;100699.31;5075979;28;20279;-79
2021/04/01 08:53:46;;;;;;;;;;;;;;;17.82;64.00;100696.94;5089472;28;20279;-80
2021/04/01 08:56:25;;;;;;;;;;;;;;;17.97;63.87;100703.13;5097948;28;19923;-79
2021/04/01 08:58:50;;;;;;;;;;;;;;;18.14;62.85;100699.41;5098546;28;19942;-78
2021/04/01 09:01:16;;;;;;;;;;;;;;;18.26;63.37;100702.31;5099932;28;19924;-79
2021/04/01 09:03:48;;;;;;;;;;;;;;;18.41;61.62;100709.31;5079537;28;19920;-79
2021/04/01 09:06:15;;;;;;;;;;;;;;;18.57;61.91;100712.31;5064183;28;19916;-80
2021/04/01 09:08:42;;;;;;;;;;;;;;;18.67;62.19;100709.13;5081232;28;20396;-79
2021/04/01 09:11:09;;;;;;;;;;;;;;;18.77;62.01;100705.88;5080419;28;19920;-79
2021/04/01 09:13:35;;;;;;;;;;;;;;;18.93;60.66;100706.06;5071901;28;19916;-79
2021/04/01 09:16:13;;;;;;;;;;;;;;;19.06;60.31;100712.59;5092957;28;20279;-79
2021/04/01 09:18:38;;;;;;;;;;;;;;;19.21;60.76;100714.72;5080793;28;20430;-79
2021/04/01 09:21:04;;;;;;;;;;;;;;;19.36;60.17;100711.25;5090450;28;19936;-79
2021/04/01 09:23:39;;;;;;;;;;;;;;;19.49;60.03;100711.28;5078590;28;19931;-79
2021/04/01 09:26:05;;;;;;;;;;;;;;;19.60;59.63;100706.81;5078056;28;19958;-79
2021/04/01 09:28:31;;;;;;;;;;;;;;;19.68;58.87;100705.94;5099311;28;19920;-79
2021/04/01 09:30:58;;;;;;;;;;;;;;;19.80;58.47;100717.19;5080662;28;19969;-79
2021/04/01 09:33:27;;;;;;;;;;;;;;;19.90;58.86;100706.66;5080396;28;19955;-79
2021/04/01 09:35:52;;;;;;;;;;;;;;;20.02;58.54;100709.44;5081871;28;19916;-79
2021/04/01 09:38:18;;;;;;;;;;;;;;;20.15;57.86;100719.56;5076291;28;19912;-79
2021/04/01 09:40:44;;;;;;;;;;;;;;;20.26;58.69;100711.44;5080730;28;20364;-79
2021/04/01 09:43:16;;;;;;;;;;;;;;;20.37;58.38;100718.22;5050609;28;19917;-79
2021/04/01 09:45:41;;;;;;;;;;;;;;;20.42;57.91;100711.50;5072789;28;20061;-79
2021/04/01 09:48:07;;;;;;;;;;;;;;;20.52;57.24;100720.28;5079325;28;19917;-79
2021/04/01 09:50:36;;;;;;;;;;;;;;;20.63;58.96;100719.84;5080461;28;20015;-79
2021/04/01 09:53:02;;;;;;;;;;;;;;;20.85;56.77;100721.28;5098284;28;20269;-79
2021/04/01 09:55:39;;;;;;;;;;;;;;;20.95;57.39;100727.25;5078945;28;19923;-80
2021/04/01 09:58:21;;;;;;;;;;;;;;;21.07;56.90;100717.91;5061408;28;19916;-79
2021/04/01 10:03:44;;;;;;;;;;;;;;;21.34;55.69;100726.69;5038874;28;19916;-79
2021/04/01 10:06:09;;;;;;;;;;;;;;;21.48;55.19;100726.28;5078288;28;19964;-79
2021/04/01 10:08:38;;;;;;;;;;;;;;;21.57;53.47;100724.94;5079971;28;19916;-79
2021/04/01 10:11:07;;;;;;;;;;;;;;;21.66;53.80;100721.94;5080842;28;19923;-79
2021/04/01 10:13:32;;;;;;;;;;;;;;;21.77;53.60;100720.19;5097218;28;20003;-79
2021/04/01 10:16:00;;;;;;;;;;;;;;;21.90;53.97;100714.44;5091716;28;20068;-79
2021/04/01 10:18:33;;;;;;;;;;;;;;;21.99;53.92;100729.22;5098089;28;19923;-80
2021/04/01 10:21:02;;;;;;;;;;;;;;;21.95;52.25;100720.63;5076789;28;19966;-80
2021/04/01 10:23:28;;;;;;;;;;;;;;;22.04;52.27;100721.28;5097917;28;19920;-80
2021/04/01 10:26:02;;;;;;;;;;;;;;;22.16;51.64;100728.00;5096740;28;19922;-79
2021/04/01 10:30:59;;;;;;;;;;;;;;;22.33;52.90;100719.16;5072755;28;20368;-79
2021/04/01 10:33:28;;;;;;;;;;;;;;;22.36;51.90;100726.88;5076841;28;19960;-79
2021/04/01 10:35:54;;;;;;;;;;;;;;;22.46;52.22;100722.69;5096589;28;19916;-80
2021/04/01 10:38:20;;;;;;;;;;;;;;;22.52;51.92;100724.03;5078937;28;19916;-80
2021/04/01 10:40:47;;;;;;;;;;;;;;;22.62;54.10;100722.59;5056823;28;20395;-80
2021/04/01 10:43:13;;;;;;;;;;;;;;;22.71;50.62;100723.22;5069082;28;20380;-80
2021/04/01 10:45:43;;;;;;;;;;;;;;;22.80;50.77;100718.16;5078166;28;19920;-79
2021/04/01 10:48:27;;;;;;;;;;;;;;;22.82;52.43;100714.97;5074838;28;20370;-80
2021/04/01 10:50:53;;;;;;;;;;;;;;;22.71;50.69;100723.22;5078193;28;20006;-71
2021/04/01 10:53:22;;;;;;;;;;;;;;;22.71;50.50;100714.75;5091703;28;19958;-71
2021/04/01 10:55:47;;;;;;;;;;;;;;;22.84;49.71;100719.03;5071514;28;20372;-71
2021/04/01 10:58:13;;;;;;;;;;;;;;;22.95;49.41;100719.25;5095314;28;19935;-71
2021/04/01 11:00:38;;;;;;;;;;;;;;;23.03;49.50;100717.44;5095567;28;19948;-71
2021/04/01 11:03:05;;;;;;;;;;;;;;;23.13;49.67;100716.84;5094264;28;19920;-71
2021/04/01 11:05:31;;;;;;;;;;;;;;;23.25;50.04;100722.31;5076048;28;20460;-71
2021/04/01 11:08:00;;;;;;;;;;;;;;;23.37;51.85;100721.31;5095031;28;19920;-71
2021/04/01 11:10:27;;;;;;;;;;;;;;;23.46;51.09;100726.75;5092811;28;19916;-71
2021/04/01 11:12:53;;;;;;;;;;;;;;;23.56;51.33;100728.97;5096527;28;20475;-71
2021/04/01 11:15:21;;;;;;;;;;;;;;;23.68;49.91;100723.13;5092724;28;19916;-71
2021/04/01 11:17:47;;;;;;;;;;;;;;;23.78;50.65;100727.38;5077439;28;19977;-71
2021/04/01 11:20:12;;;;;;;;;;;;;;;23.80;50.38;100724.97;5092265;28;20312;-74
2021/04/01 11:22:38;;;;;;;;;;;;;;;23.82;48.95;100716.88;5077929;28;19920;-74
2021/04/01 11:25:12;;;;;;;;;;;;;;;23.97;49.39;100715.94;5077517;28;19912;-74
2021/04/01 11:27:49;;;;;;;;;;;;;;;24.04;48.45;100718.91;5092737;28;19924;-74
2021/04/01 11:30:15;;;;;;;;;;;;;;;24.13;47.41;100717.81;5085099;28;20321;-74
2021/04/01 11:32:41;;;;;;;;;;;;;;;24.21;45.92;100716.69;5061354;28;19920;-75
2021/04/01 11:35:06;;;;;;;;;;;;;;;24.33;46.40;100716.50;5077680;28;19912;-74
2021/04/01 11:37:35;;;;;;;;;;;;;;;24.34;45.73;100714.47;5097396;28;19920;-75
2021/04/01 11:40:08;;;;;;;;;;;;;;;24.29;45.53;100709.94;5075902;28;19912;-75
2021/04/01 11:42:33;;;;;;;;;;;;;;;24.42;45.66;100707.69;5096330;28;20042;-75
2021/04/01 11:45:02;;;;;;;;;;;;;;;24.41;45.83;100708.91;5077353;28;19962;-74
2021/04/01 11:47:29;;;;;;;;;;;;;;;24.51;46.79;100708.25;5091129;28;19922;-75
2021/04/01 11:49:54;;;;;;;;;;;;;;;24.60;46.84;100705.13;5077613;28;19959;-75
2021/04/01 11:52:20;;;;;;;;;;;;;;;24.66;46.83;100704.41;5096221;28;19927;-75
2021/04/01 11:54:46;;;;;;;;;;;;;;;24.75;45.63;100706.94;5094929;28;19959;-75
2021/04/01 11:57:15;;;;;;;;;;;;;;;24.81;45.75;100702.56;5096791;28;19926;-75
2021/04/01 11:59:41;;;;;;;;;;;;;;;24.87;45.79;100703.03;5094439;28;19923;-75
2021/04/01 12:02:10;;;;;;;;;;;;;;;24.94;45.54;100703.94;5075201;28;20443;-75
2021/04/01 12:04:37;;;;;;;;;;;;;;;25.00;44.82;100707.25;5095720;28;20363;-75
2021/04/01 12:07:05;;;;;;;;;;;;;;;24.94;44.32;100703.94;5076403;28;20334;-75
2021/04/01 12:09:30;;;;;;;;;;;;;;;24.95;44.66;100696.25;5078286;28;19976;-75
2021/04/01 12:11:56;;;;;;;;;;;;;;;24.98;44.11;100699.13;5055465;28;20029;-75
2021/04/01 12:14:30;;;;;;;;;;;;;;;25.00;43.60;100695.09;5085946;28;20364;-75
2021/04/01 12:16:59;;;;;;;;;;;;;;;24.95;45.21;100694.22;5091961;28;19913;-75
2021/04/01 12:19:24;;;;;;;;;;;;;;;25.04;45.54;100691.06;5075567;28;20453;-75
2021/04/01 12:21:50;;;;;;;;;;;;;;;24.98;45.34;100687.75;5073165;28;20018;-75
2021/04/01 12:24:15;;;;;;;;;;;;;;;25.07;45.26;100680.94;5095268;28;19912;-75
2021/04/01 12:26:43;;;;;;;;;;;;;;;25.08;45.37;100688.28;5093470;28;19919;-75
2021/04/01 12:29:09;;;;;;;;;;;;;;;25.05;45.03;100686.22;5096075;28;19916;-75
2021/04/01 12:31:41;;;;;;;;;;;;;;;25.05;44.22;100687.03;5093114;28;20034;-75
2021/04/01 12:34:10;;;;;;;;;;;;;;;25.04;44.71;100678.88;5093719;28;19951;-75
2021/04/01 12:36:36;;;;;;;;;;;;;;;25.06;44.97;100682.97;5087142;28;19924;-75
2021/04/01 12:39:02;;;;;;;;;;;;;;;25.14;42.98;100683.88;5095295;28;20383;-75
2021/04/01 12:41:28;;;;;;;;;;;;;;;25.18;44.21;100685.59;5076152;28;19931;-75
2021/04/01 12:43:54;;;;;;;;;;;;;;;25.27;44.35;100684.44;5093714;28;20371;-75
2021/04/01 12:46:19;;;;;;;;;;;;;;;25.30;43.37;100681.66;5094336;28;19976;-75
2021/04/01 12:48:50;;;;;;;;;;;;;;;25.34;42.95;100687.34;5094269;28;20060;-75
2021/04/01 12:51:19;;;;;;;;;;;;;;;25.27;43.34;100675.91;5094360;28;19912;-80
2021/04/01 12:53:54;;;;;;;;;;;;;;;25.31;43.78;100680.41;5057274;28;19939;-80
2021/04/01 12:56:23;;;;;;;;;;;;;;;25.35;43.69;100675.59;5073467;28;20365;-80
2021/04/01 12:58:58;;;;;;;;;;;;;;;25.35;43.67;100677.59;5076517;28;19919;-80
2021/04/01 13:03:49;;;;;;;;;;;;;;;25.30;41.51;100672.31;5093105;28;19962;-80
2021/04/01 13:06:20;;;;;;;;;;;;;;;25.27;42.02;100664.53;5094924;28;19916;-80
2021/04/01 13:11:11;;;;;;;;;;;;;;;25.21;41.67;100666.91;5060271;28;19916;-80
2021/04/01 13:13:37;;;;;;;;;;;;;;;25.20;41.64;100670.97;5057438;28;20066;-80
2021/04/01 13:16:02;;;;;;;;;;;;;;;25.17;40.05;100666.88;5069199;28;20548;-80
2021/04/01 13:18:27;;;;;;;;;;;;;;;25.17;41.92;100672.56;5059211;28;20002;-80
2021/04/01 13:20:54;;;;;;;;;;;;;;;25.14;39.76;100670.50;5073615;28;19916;-80
2021/04/01 13:23:31;;;;;;;;;;;;;;;25.03;40.84;100666.69;5077612;28;19916;-80
2021/04/01 13:25:56;;;;;;;;;;;;;;;25.06;41.62;100660.25;5060929;28;20387;-80
2021/04/01 13:28:22;;;;;;;;;;;;;;;25.07;41.21;100670.38;5060034;28;19920;-80
2021/04/01 13:30:50;;;;;;;;;;;;;;;25.03;40.76;100665.91;5077521;28;19912;-80
2021/04/01 13:33:36;;;;;;;;;;;;;;;25.01;40.23;100674.78;5073096;28;19917;-80
2021/04/01 13:36:11;;;;;;;;;;;;;;;25.03;40.04;100658.19;5079776;28;19920;-80
2021/04/01 13:38:40;;;;;;;;;;;;;;;25.03;40.58;100663.06;5056094;28;19914;-80
2021/04/01 13:41:06;;;;;;;;;;;;;;;25.02;40.63;100665.09;5079604;28;19959;-80
2021/04/01 13:43:31;;;;;;;;;;;;;;;25.02;41.91;100665.09;5070187;28;19973;-80
2021/04/01 13:45:57;;;;;;;;;;;;;;;24.90;42.01;100657.63;5078560;28;20411;-80
2021/04/01 13:48:28;;;;;;;;;;;;;;;24.81;42.38;100656.31;5078398;28;19916;-80
2021/04/01 13:51:02;;;;;;;;;;;;;;;24.87;41.61;100651.91;5081704;28;19916;-80
2021/04/01 13:56:02;;;;;;;;;;;;;;;24.77;40.63;100646.91;5078337;28;19965;-80
2021/04/01 14:04:02;;;;;;;;;;;;;;;24.70;40.37;100650.50;5062655;28;19920;-80
2021/04/01 14:09:26;;;;;;;;;;;;;;;24.72;40.85;100651.75;5097621;28;20306;-80
2021/04/01 14:11:51;;;;;;;;;;;;;;;24.67;40.12;100648.44;5060138;28;19965;-80
2021/04/01 14:14:17;;;;;;;;;;;;;;;24.62;39.45;100641.06;5094394;28;19968;-80